sensor_id;sensor_type;location;lat;lon;timestamp;P1;durP1;ratioP1;P2;durP2;ratioP2
37273;SDS011;23161;51.250;5.554;2022-09-01T05:36:11;18.65;;;14.05;;
37273;SDS011;23161;51.250;5.554;2022-09-01T05:38:41;19.65;;;13.90;;
37273;SDS011;23161;51.250;5.554;2022-09-01T05:41:11;28.63;;;12.68;;
37273;SDS011;23161;51.250;5.554;2022-09-01T05:43:42;22.33;;;13.80;;
37273;SDS011;23161;51.250;5.554;2022-09-01T05:46:14;16.25;;;10.43;;
37273;SDS011;23161;51.250;5.554;2022-09-01T05:48:46;18.30;;;11.13;;
37273;SDS011;23161;51.250;5.554;2022-09-01T05:51:16;26.30;;;10.80;;
37273;SDS011;23161;51.250;5.554;2022-09-01T05:53:44;17.70;;;10.30;;
37273;SDS011;23161;51.250;5.554;2022-09-01T05:56:11;16.83;;;11.55;;
37273;SDS011;23161;51.250;5.554;2022-09-01T05:58:39;18.92;;;9.85;;
37273;SDS011;23161;51.250;5.554;2022-09-01T06:01:08;15.40;;;8.30;;
37273;SDS011;23161;51.250;5.554;2022-09-01T06:03:35;10.85;;;8.10;;
37273;SDS011;23161;51.250;5.554;2022-09-01T06:06:03;15.05;;;7.93;;
37273;SDS011;23161;51.250;5.554;2022-09-01T06:08:33;14.70;;;7.30;;
37273;SDS011;23161;51.250;5.554;2022-09-01T06:11:01;10.55;;;6.43;;
37273;SDS011;23161;51.250;5.554;2022-09-01T06:13:28;7.80;;;4.90;;
37273;SDS011;23161;51.250;5.554;2022-09-01T06:15:54;6.43;;;5.20;;
37273;SDS011;23161;51.250;5.554;2022-09-01T06:18:23;4.82;;;4.43;;
37273;SDS011;23161;51.250;5.554;2022-09-01T06:20:55;8.32;;;4.95;;
37273;SDS011;23161;51.250;5.554;2022-09-01T06:23:22;8.23;;;4.88;;
37273;SDS011;23161;51.250;5.554;2022-09-01T06:25:47;7.70;;;4.63;;
37273;SDS011;23161;51.250;5.554;2022-09-01T06:28:18;9.52;;;3.60;;
37273;SDS011;23161;51.250;5.554;2022-09-01T06:30:46;2.80;;;2.35;;
37273;SDS011;23161;51.250;5.554;2022-09-01T06:33:13;6.55;;;3.58;;
37273;SDS011;23161;51.250;5.554;2022-09-01T06:35:45;2.72;;;2.50;;
37273;SDS011;23161;51.250;5.554;2022-09-01T06:38:12;9.27;;;3.42;;
37273;SDS011;23161;51.250;5.554;2022-09-01T06:40:44;3.92;;;2.20;;
37273;SDS011;23161;51.250;5.554;2022-09-01T06:43:13;3.60;;;2.92;;
37273;SDS011;23161;51.250;5.554;2022-09-01T06:45:46;6.15;;;2.92;;
37273;SDS011;23161;51.250;5.554;2022-09-01T06:48:20;5.32;;;2.10;;
37273;SDS011;23161;51.250;5.554;2022-09-01T06:50:49;3.08;;;2.22;;
37273;SDS011;23161;51.250;5.554;2022-09-01T06:53:16;4.90;;;2.33;;
37273;SDS011;23161;51.250;5.554;2022-09-01T06:55:47;3.22;;;2.92;;
37273;SDS011;23161;51.250;5.554;2022-09-01T06:58:13;6.85;;;2.50;;
37273;SDS011;23161;51.250;5.554;2022-09-01T07:00:45;9.88;;;4.53;;
37273;SDS011;23161;51.250;5.554;2022-09-01T07:03:12;2.38;;;2.08;;
37273;SDS011;23161;51.250;5.554;2022-09-01T07:05:47;2.40;;;2.00;;
37273;SDS011;23161;51.250;5.554;2022-09-01T07:08:18;3.03;;;2.47;;
37273;SDS011;23161;51.250;5.554;2022-09-01T07:11:16;2.60;;;1.98;;
37273;SDS011;23161;51.250;5.554;2022-09-01T07:13:48;3.50;;;3.13;;
37273;SDS011;23161;51.250;5.554;2022-09-01T07:16:19;11.65;;;2.63;;
37273;SDS011;23161;51.250;5.554;2022-09-01T07:18:52;11.00;;;2.80;;
37273;SDS011;23161;51.250;5.554;2022-09-01T07:21:26;3.90;;;2.42;;
37273;SDS011;23161;51.250;5.554;2022-09-01T07:23:53;3.08;;;2.47;;
37273;SDS011;23161;51.250;5.554;2022-09-01T07:26:22;2.95;;;2.60;;
37273;SDS011;23161;51.250;5.554;2022-09-01T07:28:49;8.27;;;2.47;;
37273;SDS011;23161;51.250;5.554;2022-09-01T07:31:26;3.83;;;2.25;;
37273;SDS011;23161;51.250;5.554;2022-09-01T07:33:58;2.08;;;1.88;;
37273;SDS011;23161;51.250;5.554;2022-09-01T07:36:26;3.35;;;2.55;;
37273;SDS011;23161;51.250;5.554;2022-09-01T07:38:52;4.13;;;2.72;;
37273;SDS011;23161;51.250;5.554;2022-09-01T07:41:20;6.05;;;2.20;;
37273;SDS011;23161;51.250;5.554;2022-09-01T07:43:47;5.18;;;2.65;;
37273;SDS011;23161;51.250;5.554;2022-09-01T07:46:33;3.08;;;2.38;;
37273;SDS011;23161;51.250;5.554;2022-09-01T07:48:59;4.53;;;2.50;;
37273;SDS011;23161;51.250;5.554;2022-09-01T07:51:26;6.43;;;3.05;;
37273;SDS011;23161;51.250;5.554;2022-09-01T07:53:54;3.05;;;2.83;;
37273;SDS011;23161;51.250;5.554;2022-09-01T07:56:22;9.10;;;3.47;;
37273;SDS011;23161;51.250;5.554;2022-09-01T07:58:50;4.15;;;2.70;;
37273;SDS011;23161;51.250;5.554;2022-09-01T08:01:18;3.05;;;2.40;;
37273;SDS011;23161;51.250;5.554;2022-09-01T08:03:49;5.88;;;3.17;;
37273;SDS011;23161;51.250;5.554;2022-09-01T08:06:18;3.25;;;2.95;;
37273;SDS011;23161;51.250;5.554;2022-09-01T08:08:47;5.55;;;2.55;;
37273;SDS011;23161;51.250;5.554;2022-09-01T08:11:19;3.17;;;2.28;;
37273;SDS011;23161;51.250;5.554;2022-09-01T08:13:48;5.60;;;1.90;;
37273;SDS011;23161;51.250;5.554;2022-09-01T08:16:15;4.55;;;2.80;;
37273;SDS011;23161;51.250;5.554;2022-09-01T08:18:41;3.85;;;3.28;;
37273;SDS011;23161;51.250;5.554;2022-09-01T08:21:12;2.80;;;2.05;;
37273;SDS011;23161;51.250;5.554;2022-09-01T08:24:05;3.70;;;1.60;;
37273;SDS011;23161;51.250;5.554;2022-09-01T08:26:33;3.88;;;1.95;;
37273;SDS011;23161;51.250;5.554;2022-09-01T08:29:01;3.17;;;2.30;;
37273;SDS011;23161;51.250;5.554;2022-09-01T08:31:37;3.95;;;1.70;;
37273;SDS011;23161;51.250;5.554;2022-09-01T08:34:03;4.38;;;1.58;;
37273;SDS011;23161;51.250;5.554;2022-09-01T08:36:29;2.90;;;2.28;;
37273;SDS011;23161;51.250;5.554;2022-09-01T08:38:56;9.00;;;1.80;;
37273;SDS011;23161;51.250;5.554;2022-09-01T08:46:45;2.45;;;1.90;;
37273;SDS011;23161;51.250;5.554;2022-09-01T08:49:18;1.83;;;1.25;;
37273;SDS011;23161;51.250;5.554;2022-09-01T08:55:00;3.00;;;2.67;;
37273;SDS011;23161;51.250;5.554;2022-09-01T08:57:37;2.10;;;1.90;;
37273;SDS011;23161;51.250;5.554;2022-09-01T09:00:19;2.15;;;1.10;;
37273;SDS011;23161;51.250;5.554;2022-09-01T09:16:05;2.38;;;1.50;;
37273;SDS011;23161;51.250;5.554;2022-09-01T09:21:44;5.43;;;2.25;;
37273;SDS011;23161;51.250;5.554;2022-09-01T09:24:17;4.43;;;1.65;;
37273;SDS011;23161;51.250;5.554;2022-09-01T09:29:51;6.53;;;3.15;;
37273;SDS011;23161;51.250;5.554;2022-09-01T09:32:19;2.53;;;1.75;;
37273;SDS011;23161;51.250;5.554;2022-09-01T09:34:48;7.72;;;2.75;;
37273;SDS011;23161;51.250;5.554;2022-09-01T09:37:27;3.42;;;2.22;;
37273;SDS011;23161;51.250;5.554;2022-09-01T09:40:15;2.40;;;1.10;;
37273;SDS011;23161;51.250;5.554;2022-09-01T09:45:21;3.80;;;1.70;;
37273;SDS011;23161;51.250;5.554;2022-09-01T09:47:54;7.05;;;1.40;;
37273;SDS011;23161;51.250;5.554;2022-09-01T09:50:23;3.25;;;1.77;;
37273;SDS011;23161;51.250;5.554;2022-09-01T09:58:30;2.75;;;1.50;;
37273;SDS011;23161;51.250;5.554;2022-09-01T10:01:07;1.90;;;1.17;;
37273;SDS011;23161;51.250;5.554;2022-09-01T10:03:54;1.02;;;0.95;;
37273;SDS011;23161;51.250;5.554;2022-09-01T10:22:35;3.83;;;1.20;;
37273;SDS011;23161;51.250;5.554;2022-09-01T10:25:06;2.53;;;1.08;;
37273;SDS011;23161;51.250;5.554;2022-09-01T10:27:39;2.60;;;1.15;;
37273;SDS011;23161;51.250;5.554;2022-09-01T10:30:17;1.27;;;1.17;;
37273;SDS011;23161;51.250;5.554;2022-09-01T10:32:55;2.08;;;1.05;;
37273;SDS011;23161;51.250;5.554;2022-09-01T10:40:39;0.80;;;0.80;;
37273;SDS011;23161;51.250;5.554;2022-09-01T10:48:55;1.75;;;0.82;;
37273;SDS011;23161;51.250;5.554;2022-09-01T10:53:56;1.17;;;1.00;;
37273;SDS011;23161;51.250;5.554;2022-09-01T11:04:15;2.90;;;1.30;;
37273;SDS011;23161;51.250;5.554;2022-09-01T11:06:45;1.60;;;1.00;;
37273;SDS011;23161;51.250;5.554;2022-09-01T11:09:39;1.63;;;1.52;;
37273;SDS011;23161;51.250;5.554;2022-09-01T11:14:52;3.65;;;0.93;;
37273;SDS011;23161;51.250;5.554;2022-09-01T11:17:21;2.55;;;1.35;;
37273;SDS011;23161;51.250;5.554;2022-09-01T11:20:07;1.65;;;1.02;;
37273;SDS011;23161;51.250;5.554;2022-09-01T11:23:05;1.90;;;1.00;;
37273;SDS011;23161;51.250;5.554;2022-09-01T11:36:13;5.60;;;2.28;;
37273;SDS011;23161;51.250;5.554;2022-09-01T11:47:01;9.98;;;2.30;;
37273;SDS011;23161;51.250;5.554;2022-09-01T11:49:46;7.18;;;2.38;;
37273;SDS011;23161;51.250;5.554;2022-09-01T11:52:41;12.10;;;1.17;;
37273;SDS011;23161;51.250;5.554;2022-09-01T11:55:17;9.88;;;2.03;;
37273;SDS011;23161;51.250;5.554;2022-09-01T11:57:55;9.73;;;1.45;;
37273;SDS011;23161;51.250;5.554;2022-09-01T12:00:27;8.00;;;1.58;;
37273;SDS011;23161;51.250;5.554;2022-09-01T12:03:05;10.90;;;2.25;;
37273;SDS011;23161;51.250;5.554;2022-09-01T12:05:47;4.05;;;1.55;;
37273;SDS011;23161;51.250;5.554;2022-09-01T12:08:25;12.90;;;1.60;;
37273;SDS011;23161;51.250;5.554;2022-09-01T12:13:27;4.13;;;1.00;;
37273;SDS011;23161;51.250;5.554;2022-09-01T12:15:57;3.67;;;1.23;;
37273;SDS011;23161;51.250;5.554;2022-09-01T12:18:32;1.65;;;1.05;;
37273;SDS011;23161;51.250;5.554;2022-09-01T12:21:04;4.22;;;0.98;;
37273;SDS011;23161;51.250;5.554;2022-09-01T12:23:34;3.80;;;1.70;;
37273;SDS011;23161;51.250;5.554;2022-09-01T12:26:07;5.85;;;1.85;;
37273;SDS011;23161;51.250;5.554;2022-09-01T12:28:36;6.72;;;1.65;;
37273;SDS011;23161;51.250;5.554;2022-09-01T12:31:21;2.97;;;1.45;;
37273;SDS011;23161;51.250;5.554;2022-09-01T12:33:52;4.45;;;0.90;;
37273;SDS011;23161;51.250;5.554;2022-09-01T12:36:40;3.28;;;1.00;;
37273;SDS011;23161;51.250;5.554;2022-09-01T12:39:19;2.15;;;1.05;;
37273;SDS011;23161;51.250;5.554;2022-09-01T12:42:01;6.18;;;1.60;;
37273;SDS011;23161;51.250;5.554;2022-09-01T12:46:54;2.88;;;1.75;;
37273;SDS011;23161;51.250;5.554;2022-09-01T12:49:35;2.92;;;1.55;;
37273;SDS011;23161;51.250;5.554;2022-09-01T12:52:16;4.18;;;1.92;;
37273;SDS011;23161;51.250;5.554;2022-09-01T12:57:32;3.13;;;1.17;;
37273;SDS011;23161;51.250;5.554;2022-09-01T13:05:29;2.13;;;1.67;;
37273;SDS011;23161;51.250;5.554;2022-09-01T13:07:59;7.43;;;2.30;;
37273;SDS011;23161;51.250;5.554;2022-09-01T13:10:32;1.98;;;1.60;;
37273;SDS011;23161;51.250;5.554;2022-09-01T13:13:04;2.28;;;1.10;;
37273;SDS011;23161;51.250;5.554;2022-09-01T13:15:31;1.13;;;1.08;;
37273;SDS011;23161;51.250;5.554;2022-09-01T13:17:58;5.38;;;1.40;;
37273;SDS011;23161;51.250;5.554;2022-09-01T13:20:24;2.20;;;0.95;;
37273;SDS011;23161;51.250;5.554;2022-09-01T13:22:50;5.13;;;1.55;;
37273;SDS011;23161;51.250;5.554;2022-09-01T13:28:08;5.40;;;1.63;;
37273;SDS011;23161;51.250;5.554;2022-09-01T13:33:03;2.42;;;0.85;;
37273;SDS011;23161;51.250;5.554;2022-09-01T13:35:30;1.63;;;1.40;;
37273;SDS011;23161;51.250;5.554;2022-09-01T13:37:56;3.67;;;1.35;;
37273;SDS011;23161;51.250;5.554;2022-09-01T13:40:23;1.00;;;0.93;;
37273;SDS011;23161;51.250;5.554;2022-09-01T13:42:50;2.47;;;1.23;;
37273;SDS011;23161;51.250;5.554;2022-09-01T13:45:20;1.92;;;0.90;;
37273;SDS011;23161;51.250;5.554;2022-09-01T13:47:52;0.88;;;0.88;;
37273;SDS011;23161;51.250;5.554;2022-09-01T13:50:19;6.28;;;1.25;;
37273;SDS011;23161;51.250;5.554;2022-09-01T13:52:48;2.90;;;1.17;;
37273;SDS011;23161;51.250;5.554;2022-09-01T13:55:23;2.85;;;1.25;;
37273;SDS011;23161;51.250;5.554;2022-09-01T13:57:51;7.10;;;1.15;;
37273;SDS011;23161;51.250;5.554;2022-09-01T14:00:19;1.15;;;0.98;;
37273;SDS011;23161;51.250;5.554;2022-09-01T14:02:49;1.10;;;0.85;;
37273;SDS011;23161;51.250;5.554;2022-09-01T14:05:27;1.42;;;1.20;;
37273;SDS011;23161;51.250;5.554;2022-09-01T14:10:39;2.55;;;0.65;;
37273;SDS011;23161;51.250;5.554;2022-09-01T14:13:07;4.18;;;1.08;;
37273;SDS011;23161;51.250;5.554;2022-09-01T14:15:34;0.82;;;0.82;;
37273;SDS011;23161;51.250;5.554;2022-09-01T14:18:00;6.05;;;0.95;;
37273;SDS011;23161;51.250;5.554;2022-09-01T14:20:28;7.05;;;1.25;;
37273;SDS011;23161;51.250;5.554;2022-09-01T14:23:00;0.77;;;0.70;;
37273;SDS011;23161;51.250;5.554;2022-09-01T14:25:31;6.38;;;1.23;;
37273;SDS011;23161;51.250;5.554;2022-09-01T14:27:58;7.70;;;1.25;;
37273;SDS011;23161;51.250;5.554;2022-09-01T14:30:26;0.47;;;0.47;;
37273;SDS011;23161;51.250;5.554;2022-09-01T14:32:53;1.38;;;1.17;;
37273;SDS011;23161;51.250;5.554;2022-09-01T14:35:20;3.67;;;1.25;;
37273;SDS011;23161;51.250;5.554;2022-09-01T14:37:49;12.32;;;1.63;;
37273;SDS011;23161;51.250;5.554;2022-09-01T14:40:16;2.25;;;0.70;;
37273;SDS011;23161;51.250;5.554;2022-09-01T14:42:45;1.80;;;1.02;;
37273;SDS011;23161;51.250;5.554;2022-09-01T14:45:20;2.03;;;1.20;;
37273;SDS011;23161;51.250;5.554;2022-09-01T14:47:50;3.17;;;0.98;;
37273;SDS011;23161;51.250;5.554;2022-09-01T14:50:18;2.15;;;1.23;;
37273;SDS011;23161;51.250;5.554;2022-09-01T14:52:45;1.65;;;0.82;;
37273;SDS011;23161;51.250;5.554;2022-09-01T14:55:11;2.92;;;0.85;;
37273;SDS011;23161;51.250;5.554;2022-09-01T14:57:37;3.05;;;1.60;;
37273;SDS011;23161;51.250;5.554;2022-09-01T15:00:04;2.80;;;1.00;;
37273;SDS011;23161;51.250;5.554;2022-09-01T15:02:34;5.10;;;1.05;;
37273;SDS011;23161;51.250;5.554;2022-09-01T15:05:00;0.80;;;0.77;;
37273;SDS011;23161;51.250;5.554;2022-09-01T15:07:26;1.02;;;0.73;;
37273;SDS011;23161;51.250;5.554;2022-09-01T15:09:52;1.15;;;1.00;;
37273;SDS011;23161;51.250;5.554;2022-09-01T15:12:18;34.05;;;3.35;;
37273;SDS011;23161;51.250;5.554;2022-09-01T15:14:44;19.15;;;2.28;;
37273;SDS011;23161;51.250;5.554;2022-09-01T15:17:09;20.25;;;2.10;;
37273;SDS011;23161;51.250;5.554;2022-09-01T15:19:35;10.00;;;1.40;;
37273;SDS011;23161;51.250;5.554;2022-09-01T15:22:01;2.10;;;1.02;;
37273;SDS011;23161;51.250;5.554;2022-09-01T15:24:28;5.85;;;1.30;;
37273;SDS011;23161;51.250;5.554;2022-09-01T15:26:54;0.73;;;0.73;;
37273;SDS011;23161;51.250;5.554;2022-09-01T15:29:20;2.80;;;0.88;;
37273;SDS011;23161;51.250;5.554;2022-09-01T15:31:45;3.75;;;1.25;;
37273;SDS011;23161;51.250;5.554;2022-09-01T15:34:11;3.50;;;1.08;;
37273;SDS011;23161;51.250;5.554;2022-09-01T15:36:38;4.25;;;1.13;;
37273;SDS011;23161;51.250;5.554;2022-09-01T15:39:06;1.60;;;0.98;;
37273;SDS011;23161;51.250;5.554;2022-09-01T15:41:33;3.90;;;0.55;;
37273;SDS011;23161;51.250;5.554;2022-09-01T15:44:04;0.70;;;0.52;;
37273;SDS011;23161;51.250;5.554;2022-09-01T15:46:31;1.15;;;0.73;;
37273;SDS011;23161;51.250;5.554;2022-09-01T15:49:02;3.15;;;1.33;;
37273;SDS011;23161;51.250;5.554;2022-09-01T15:51:31;3.50;;;0.75;;
37273;SDS011;23161;51.250;5.554;2022-09-01T15:54:08;3.47;;;0.93;;
37273;SDS011;23161;51.250;5.554;2022-09-01T15:56:44;1.15;;;1.05;;
37273;SDS011;23161;51.250;5.554;2022-09-01T15:59:11;2.47;;;1.10;;
37273;SDS011;23161;51.250;5.554;2022-09-01T16:01:42;0.85;;;0.68;;
37273;SDS011;23161;51.250;5.554;2022-09-01T16:04:12;1.48;;;0.80;;
37273;SDS011;23161;51.250;5.554;2022-09-01T16:06:39;1.25;;;1.15;;
37273;SDS011;23161;51.250;5.554;2022-09-01T16:09:06;1.60;;;1.35;;
37273;SDS011;23161;51.250;5.554;2022-09-01T16:11:32;0.60;;;0.60;;
37273;SDS011;23161;51.250;5.554;2022-09-01T16:14:00;2.13;;;1.00;;
37273;SDS011;23161;51.250;5.554;2022-09-01T16:22:05;0.77;;;0.70;;
37273;SDS011;23161;51.250;5.554;2022-09-01T16:24:43;3.03;;;0.82;;
37273;SDS011;23161;51.250;5.554;2022-09-01T16:27:12;6.35;;;1.23;;
37273;SDS011;23161;51.250;5.554;2022-09-01T16:29:48;3.45;;;1.02;;
37273;SDS011;23161;51.250;5.554;2022-09-01T16:32:20;7.22;;;1.38;;
37273;SDS011;23161;51.250;5.554;2022-09-01T16:34:47;1.73;;;1.50;;
37273;SDS011;23161;51.250;5.554;2022-09-01T16:46:04;1.48;;;1.35;;
37273;SDS011;23161;51.250;5.554;2022-09-01T16:48:39;4.95;;;1.60;;
37273;SDS011;23161;51.250;5.554;2022-09-01T16:51:15;1.20;;;1.10;;
37273;SDS011;23161;51.250;5.554;2022-09-01T16:54:04;0.98;;;0.82;;
37273;SDS011;23161;51.250;5.554;2022-09-01T16:59:54;0.93;;;0.93;;
37273;SDS011;23161;51.250;5.554;2022-09-01T17:08:04;1.35;;;0.90;;
37273;SDS011;23161;51.250;5.554;2022-09-01T17:18:57;2.72;;;1.40;;
37273;SDS011;23161;51.250;5.554;2022-09-01T17:21:38;1.60;;;1.48;;
37273;SDS011;23161;51.250;5.554;2022-09-01T17:24:26;1.17;;;0.90;;
37273;SDS011;23161;51.250;5.554;2022-09-01T17:27:00;1.02;;;1.00;;
37273;SDS011;23161;51.250;5.554;2022-09-01T17:40:48;3.05;;;1.30;;
37273;SDS011;23161;51.250;5.554;2022-09-01T17:43:43;3.58;;;1.73;;
37273;SDS011;23161;51.250;5.554;2022-09-01T17:48:59;1.80;;;1.10;;
37273;SDS011;23161;51.250;5.554;2022-09-01T17:54:45;1.77;;;1.48;;
37273;SDS011;23161;51.250;5.554;2022-09-01T17:57:45;1.58;;;1.20;;
37273;SDS011;23161;51.250;5.554;2022-09-01T18:03:02;4.47;;;1.17;;
37273;SDS011;23161;51.250;5.554;2022-09-01T18:05:35;1.02;;;0.90;;
37273;SDS011;23161;51.250;5.554;2022-09-01T18:11:15;4.93;;;1.55;;
37273;SDS011;23161;51.250;5.554;2022-09-01T18:13:56;3.33;;;1.67;;
37273;SDS011;23161;51.250;5.554;2022-09-01T18:16:41;7.32;;;2.25;;
37273;SDS011;23161;51.250;5.554;2022-09-01T18:19:31;5.13;;;2.42;;
37273;SDS011;23161;51.250;5.554;2022-09-01T18:22:02;5.78;;;2.38;;
37273;SDS011;23161;51.250;5.554;2022-09-01T18:24:47;4.38;;;2.38;;
37273;SDS011;23161;51.250;5.554;2022-09-01T18:27:26;6.63;;;3.30;;
37273;SDS011;23161;51.250;5.554;2022-09-01T18:29:52;8.02;;;3.80;;
37273;SDS011;23161;51.250;5.554;2022-09-01T18:32:22;3.88;;;3.17;;
37273;SDS011;23161;51.250;5.554;2022-09-01T18:37:31;13.98;;;5.38;;
37273;SDS011;23161;51.250;5.554;2022-09-01T18:45:13;8.80;;;4.90;;
37273;SDS011;23161;51.250;5.554;2022-09-01T18:47:48;7.35;;;4.50;;
37273;SDS011;23161;51.250;5.554;2022-09-01T18:50:28;14.77;;;4.47;;
37273;SDS011;23161;51.250;5.554;2022-09-01T19:21:45;12.60;;;5.85;;
37273;SDS011;23161;51.250;5.554;2022-09-01T19:24:26;22.27;;;6.75;;
37273;SDS011;23161;51.250;5.554;2022-09-01T19:27:02;12.77;;;5.18;;
37273;SDS011;23161;51.250;5.554;2022-09-01T19:29:41;16.80;;;7.00;;
37273;SDS011;23161;51.250;5.554;2022-09-01T19:32:13;17.30;;;6.40;;
37273;SDS011;23161;51.250;5.554;2022-09-01T19:35:06;25.02;;;6.70;;
37273;SDS011;23161;51.250;5.554;2022-09-01T19:37:36;24.73;;;7.82;;
37273;SDS011;23161;51.250;5.554;2022-09-01T19:40:05;9.30;;;5.18;;
37273;SDS011;23161;51.250;5.554;2022-09-01T19:42:39;9.32;;;4.55;;
37273;SDS011;23161;51.250;5.554;2022-09-01T19:45:17;8.48;;;3.47;;
37273;SDS011;23161;51.250;5.554;2022-09-01T19:50:26;5.50;;;3.67;;
37273;SDS011;23161;51.250;5.554;2022-09-01T19:55:36;13.75;;;4.10;;
37273;SDS011;23161;51.250;5.554;2022-09-01T19:58:09;6.85;;;3.35;;
37273;SDS011;23161;51.250;5.554;2022-09-01T20:06:09;5.35;;;3.35;;
37273;SDS011;23161;51.250;5.554;2022-09-01T20:08:38;4.28;;;2.78;;
37273;SDS011;23161;51.250;5.554;2022-09-01T20:11:26;6.80;;;3.17;;
37273;SDS011;23161;51.250;5.554;2022-09-01T20:16:50;3.47;;;2.17;;
37273;SDS011;23161;51.250;5.554;2022-09-01T20:22:15;2.22;;;2.03;;
37273;SDS011;23161;51.250;5.554;2022-09-01T20:24:49;6.22;;;3.60;;
37273;SDS011;23161;51.250;5.554;2022-09-01T20:32:44;13.38;;;4.70;;
37273;SDS011;23161;51.250;5.554;2022-09-01T20:35:20;13.80;;;4.60;;
37273;SDS011;23161;51.250;5.554;2022-09-01T20:37:56;12.35;;;4.93;;
37273;SDS011;23161;51.250;5.554;2022-09-01T20:40:33;16.50;;;5.90;;
37273;SDS011;23161;51.250;5.554;2022-09-01T20:43:10;9.98;;;5.63;;
37273;SDS011;23161;51.250;5.554;2022-09-01T20:45:39;8.52;;;6.68;;
37273;SDS011;23161;51.250;5.554;2022-09-01T20:48:21;10.65;;;6.40;;
37273;SDS011;23161;51.250;5.554;2022-09-01T20:56:46;8.65;;;5.53;;
37273;SDS011;23161;51.250;5.554;2022-09-01T21:00:21;6.15;;;4.93;;
37273;SDS011;23161;51.250;5.554;2022-09-01T21:13:22;7.78;;;5.15;;
37273;SDS011;23161;51.250;5.554;2022-09-01T21:22:11;5.22;;;4.55;;
37273;SDS011;23161;51.250;5.554;2022-09-01T21:24:39;7.22;;;5.82;;
37273;SDS011;23161;51.250;5.554;2022-09-01T21:27:19;7.55;;;5.20;;
37273;SDS011;23161;51.250;5.554;2022-09-01T21:32:17;4.97;;;3.90;;
37273;SDS011;23161;51.250;5.554;2022-09-01T21:34:44;8.23;;;4.03;;
37273;SDS011;23161;51.250;5.554;2022-09-01T21:37:11;4.78;;;4.15;;
37273;SDS011;23161;51.250;5.554;2022-09-01T21:39:38;6.47;;;3.50;;
37273;SDS011;23161;51.250;5.554;2022-09-01T21:42:05;6.75;;;4.90;;
37273;SDS011;23161;51.250;5.554;2022-09-01T21:44:33;4.55;;;3.33;;
37273;SDS011;23161;51.250;5.554;2022-09-01T21:46:59;10.70;;;3.72;;
37273;SDS011;23161;51.250;5.554;2022-09-01T21:49:25;4.00;;;2.70;;
37273;SDS011;23161;51.250;5.554;2022-09-01T21:51:51;6.20;;;3.05;;
37273;SDS011;23161;51.250;5.554;2022-09-01T21:54:17;15.43;;;4.05;;
37273;SDS011;23161;51.250;5.554;2022-09-01T21:56:44;6.00;;;2.50;;
37273;SDS011;23161;51.250;5.554;2022-09-01T21:59:10;6.10;;;4.53;;
37273;SDS011;23161;51.250;5.554;2022-09-01T22:01:41;5.45;;;2.92;;
37273;SDS011;23161;51.250;5.554;2022-09-01T22:04:07;3.33;;;2.78;;
37273;SDS011;23161;51.250;5.554;2022-09-01T22:06:34;7.07;;;2.63;;
37273;SDS011;23161;51.250;5.554;2022-09-01T22:09:01;3.72;;;2.92;;
37273;SDS011;23161;51.250;5.554;2022-09-01T22:11:28;4.82;;;2.97;;
37273;SDS011;23161;51.250;5.554;2022-09-01T22:13:57;5.40;;;2.72;;
37273;SDS011;23161;51.250;5.554;2022-09-01T22:16:24;2.95;;;2.00;;
37273;SDS011;23161;51.250;5.554;2022-09-01T22:18:50;3.13;;;2.72;;
37273;SDS011;23161;51.250;5.554;2022-09-01T22:21:16;6.57;;;2.88;;
37273;SDS011;23161;51.250;5.554;2022-09-01T22:23:43;4.60;;;2.40;;
37273;SDS011;23161;51.250;5.554;2022-09-01T22:26:23;4.05;;;2.38;;
37273;SDS011;23161;51.250;5.554;2022-09-01T22:28:55;3.95;;;2.05;;
37273;SDS011;23161;51.250;5.554;2022-09-01T22:31:24;9.30;;;2.38;;
37273;SDS011;23161;51.250;5.554;2022-09-01T22:33:51;4.03;;;1.88;;
37273;SDS011;23161;51.250;5.554;2022-09-01T22:36:23;4.95;;;1.85;;
37273;SDS011;23161;51.250;5.554;2022-09-01T22:38:53;1.42;;;1.33;;
37273;SDS011;23161;51.250;5.554;2022-09-01T22:41:22;4.20;;;2.22;;
37273;SDS011;23161;51.250;5.554;2022-09-01T22:43:49;7.78;;;1.67;;
37273;SDS011;23161;51.250;5.554;2022-09-01T22:46:17;2.30;;;1.27;;
37273;SDS011;23161;51.250;5.554;2022-09-01T22:48:44;1.73;;;1.63;;
37273;SDS011;23161;51.250;5.554;2022-09-01T22:51:10;3.85;;;1.42;;
37273;SDS011;23161;51.250;5.554;2022-09-01T22:53:37;1.83;;;1.30;;
37273;SDS011;23161;51.250;5.554;2022-09-01T22:56:09;4.47;;;1.70;;
37273;SDS011;23161;51.250;5.554;2022-09-01T22:58:40;3.97;;;1.90;;
37273;SDS011;23161;51.250;5.554;2022-09-01T23:01:12;3.55;;;2.03;;
37273;SDS011;23161;51.250;5.554;2022-09-01T23:03:40;4.03;;;1.70;;
37273;SDS011;23161;51.250;5.554;2022-09-01T23:06:09;1.30;;;1.20;;
37273;SDS011;23161;51.250;5.554;2022-09-01T23:08:37;2.65;;;1.85;;
37273;SDS011;23161;51.250;5.554;2022-09-01T23:11:04;3.38;;;1.27;;
37273;SDS011;23161;51.250;5.554;2022-09-01T23:13:30;2.13;;;1.77;;
37273;SDS011;23161;51.250;5.554;2022-09-01T23:15:57;5.18;;;1.10;;
37273;SDS011;23161;51.250;5.554;2022-09-01T23:18:24;7.32;;;1.50;;
37273;SDS011;23161;51.250;5.554;2022-09-01T23:20:52;4.15;;;1.50;;
37273;SDS011;23161;51.250;5.554;2022-09-01T23:23:18;2.75;;;1.45;;
37273;SDS011;23161;51.250;5.554;2022-09-01T23:25:44;1.70;;;1.60;;
37273;SDS011;23161;51.250;5.554;2022-09-01T23:28:15;1.85;;;1.25;;
37273;SDS011;23161;51.250;5.554;2022-09-01T23:30:42;1.25;;;1.15;;
37273;SDS011;23161;51.250;5.554;2022-09-01T23:33:14;2.95;;;1.25;;
37273;SDS011;23161;51.250;5.554;2022-09-01T23:35:42;1.95;;;1.80;;
37273;SDS011;23161;51.250;5.554;2022-09-01T23:38:09;1.52;;;1.38;;
37273;SDS011;23161;51.250;5.554;2022-09-01T23:40:44;3.45;;;1.17;;
37273;SDS011;23161;51.250;5.554;2022-09-01T23:43:16;5.18;;;1.92;;
37273;SDS011;23161;51.250;5.554;2022-09-01T23:45:47;4.22;;;1.60;;
37273;SDS011;23161;51.250;5.554;2022-09-01T23:48:15;2.65;;;1.27;;
37273;SDS011;23161;51.250;5.554;2022-09-01T23:50:42;1.55;;;1.30;;
37273;SDS011;23161;51.250;5.554;2022-09-01T23:53:15;1.02;;;0.98;;
37273;SDS011;23161;51.250;5.554;2022-09-01T23:55:43;4.10;;;1.45;;
37273;SDS011;23161;51.250;5.554;2022-09-01T23:58:11;3.35;;;1.05;;
